sensor_id;sensor_type;location;lat;lon;timestamp;pressure;altitude;pressure_sealevel;temperature;humidity
49935;BME280;39898;41.762;26.200;2022-09-09T00:01:57;101028.47;;;18.80;68.42
49935;BME280;39898;41.762;26.200;2022-09-09T00:04:35;101037.00;;;18.88;68.56
49935;BME280;39898;41.762;26.200;2022-09-09T00:12:34;101019.53;;;18.81;68.59
49935;BME280;39898;41.762;26.200;2022-09-09T00:15:10;100999.66;;;18.70;68.62
49935;BME280;39898;41.762;26.200;2022-09-09T00:28:25;101005.56;;;17.29;73.31
49935;BME280;39898;41.762;26.200;2022-09-09T00:30:53;101017.41;;;17.43;74.22
49935;BME280;39898;41.762;26.200;2022-09-09T00:33:22;101026.56;;;17.58;73.77
49935;BME280;39898;41.762;26.200;2022-09-09T00:35:58;101028.59;;;17.51;73.79
49935;BME280;39898;41.762;26.200;2022-09-09T00:38:35;101015.94;;;17.35;75.07
49935;BME280;39898;41.762;26.200;2022-09-09T00:41:19;101011.97;;;17.23;76.30
49935;BME280;39898;41.762;26.200;2022-09-09T00:44:00;101013.03;;;17.18;75.93
49935;BME280;39898;41.762;26.200;2022-09-09T00:55:20;101027.06;;;16.98;79.73
49935;BME280;39898;41.762;26.200;2022-09-09T00:57:51;101044.03;;;16.94;79.50
49935;BME280;39898;41.762;26.200;2022-09-09T01:00:24;101043.63;;;17.05;79.32
49935;BME280;39898;41.762;26.200;2022-09-09T01:03:27;101043.28;;;17.14;78.78
49935;BME280;39898;41.762;26.200;2022-09-09T01:06:02;101045.16;;;17.35;77.85
49935;BME280;39898;41.762;26.200;2022-09-09T01:11:01;101027.59;;;17.31;76.61
49935;BME280;39898;41.762;26.200;2022-09-09T01:13:31;101045.72;;;17.66;75.99
49935;BME280;39898;41.762;26.200;2022-09-09T01:16:03;101040.09;;;17.52;77.46
49935;BME280;39898;41.762;26.200;2022-09-09T01:18:34;101063.16;;;17.73;76.95
49935;BME280;39898;41.762;26.200;2022-09-09T01:26:46;101066.72;;;17.95;75.04
49935;BME280;39898;41.762;26.200;2022-09-09T01:29:16;101020.72;;;17.25;77.40
49935;BME280;39898;41.762;26.200;2022-09-09T01:31:58;101050.81;;;17.26;78.39
49935;BME280;39898;41.762;26.200;2022-09-09T01:34:28;101052.88;;;17.18;78.14
49935;BME280;39898;41.762;26.200;2022-09-09T01:37:07;101046.81;;;16.91;78.50
49935;BME280;39898;41.762;26.200;2022-09-09T01:39:35;101050.16;;;16.71;80.37
49935;BME280;39898;41.762;26.200;2022-09-09T01:42:05;101057.41;;;16.40;81.62
49935;BME280;39898;41.762;26.200;2022-09-09T01:44:34;101055.84;;;16.35;82.06
49935;BME280;39898;41.762;26.200;2022-09-09T01:47:02;101051.63;;;16.29;82.33
49935;BME280;39898;41.762;26.200;2022-09-09T01:49:29;101061.28;;;16.30;82.33
49935;BME280;39898;41.762;26.200;2022-09-09T01:51:57;101041.03;;;16.29;81.14
49935;BME280;39898;41.762;26.200;2022-09-09T01:54:26;101052.94;;;16.44;81.10
49935;BME280;39898;41.762;26.200;2022-09-09T01:57:11;100995.09;;;16.03;81.51
49935;BME280;39898;41.762;26.200;2022-09-09T01:59:57;101049.13;;;16.25;81.99
49935;BME280;39898;41.762;26.200;2022-09-09T02:02:39;101059.38;;;16.35;82.30
49935;BME280;39898;41.762;26.200;2022-09-09T02:05:41;101032.44;;;16.21;82.33
49935;BME280;39898;41.762;26.200;2022-09-09T02:08:20;101061.53;;;16.23;82.20
49935;BME280;39898;41.762;26.200;2022-09-09T02:13:38;101046.56;;;15.96;84.12
49935;BME280;39898;41.762;26.200;2022-09-09T02:16:24;101045.06;;;15.87;84.29
49935;BME280;39898;41.762;26.200;2022-09-09T02:18:57;101040.69;;;15.86;84.52
49935;BME280;39898;41.762;26.200;2022-09-09T02:21:29;101036.41;;;15.82;84.47
49935;BME280;39898;41.762;26.200;2022-09-09T02:23:59;101042.50;;;15.84;84.81
49935;BME280;39898;41.762;26.200;2022-09-09T02:26:27;101032.16;;;15.77;84.71
49935;BME280;39898;41.762;26.200;2022-09-09T02:28:55;101032.28;;;15.72;84.69
49935;BME280;39898;41.762;26.200;2022-09-09T02:31:24;101052.97;;;15.89;84.74
49935;BME280;39898;41.762;26.200;2022-09-09T02:33:55;101020.44;;;15.84;84.03
49935;BME280;39898;41.762;26.200;2022-09-09T02:36:25;101068.53;;;15.99;84.33
49935;BME280;39898;41.762;26.200;2022-09-09T02:38:53;101056.28;;;15.95;84.08
49935;BME280;39898;41.762;26.200;2022-09-09T02:41:24;101054.75;;;15.88;84.18
49935;BME280;39898;41.762;26.200;2022-09-09T02:43:52;101055.19;;;16.02;84.57
49935;BME280;39898;41.762;26.200;2022-09-09T02:49:06;101050.00;;;16.25;82.90
49935;BME280;39898;41.762;26.200;2022-09-09T02:54:28;101047.34;;;15.99;82.68
49935;BME280;39898;41.762;26.200;2022-09-09T02:59:38;101010.88;;;15.80;82.95
49935;BME280;39898;41.762;26.200;2022-09-09T03:02:05;101050.59;;;15.80;83.52
49935;BME280;39898;41.762;26.200;2022-09-09T03:04:32;101038.88;;;15.61;84.31
49935;BME280;39898;41.762;26.200;2022-09-09T03:06:59;101038.09;;;15.57;84.89
49935;BME280;39898;41.762;26.200;2022-09-09T03:09:26;101047.63;;;15.63;84.77
49935;BME280;39898;41.762;26.200;2022-09-09T03:11:52;101036.16;;;15.62;85.32
49935;BME280;39898;41.762;26.200;2022-09-09T03:14:22;101036.34;;;15.27;86.46
49935;BME280;39898;41.762;26.200;2022-09-09T03:16:51;101035.88;;;15.13;88.33
49935;BME280;39898;41.762;26.200;2022-09-09T03:19:19;101035.94;;;15.12;89.50
49935;BME280;39898;41.762;26.200;2022-09-09T03:21:46;101020.06;;;15.12;89.86
49935;BME280;39898;41.762;26.200;2022-09-09T03:24:13;101041.50;;;15.32;88.71
49935;BME280;39898;41.762;26.200;2022-09-09T03:26:41;101009.38;;;15.15;88.50
49935;BME280;39898;41.762;26.200;2022-09-09T03:29:12;101024.06;;;15.25;88.84
49935;BME280;39898;41.762;26.200;2022-09-09T03:31:39;101025.38;;;15.10;89.65
49935;BME280;39898;41.762;26.200;2022-09-09T03:34:09;101029.63;;;15.16;89.70
49935;BME280;39898;41.762;26.200;2022-09-09T03:36:36;101024.25;;;15.19;89.55
49935;BME280;39898;41.762;26.200;2022-09-09T03:39:03;101024.28;;;15.17;89.08
49935;BME280;39898;41.762;26.200;2022-09-09T03:41:30;101019.81;;;15.19;88.97
49935;BME280;39898;41.762;26.200;2022-09-09T03:43:57;100996.38;;;15.07;88.33
49935;BME280;39898;41.762;26.200;2022-09-09T03:46:24;101020.09;;;15.10;88.49
49935;BME280;39898;41.762;26.200;2022-09-09T03:48:51;101015.91;;;15.03;89.26
49935;BME280;39898;41.762;26.200;2022-09-09T03:51:21;101022.63;;;15.15;88.88
49935;BME280;39898;41.762;26.200;2022-09-09T03:53:48;101023.25;;;15.23;87.93
49935;BME280;39898;41.762;26.200;2022-09-09T03:56:15;101018.69;;;15.28;87.74
49935;BME280;39898;41.762;26.200;2022-09-09T03:58:42;101021.50;;;15.22;87.92
49935;BME280;39898;41.762;26.200;2022-09-09T04:01:12;101026.72;;;15.25;88.13
49935;BME280;39898;41.762;26.200;2022-09-09T04:03:44;101021.03;;;15.08;88.04
49935;BME280;39898;41.762;26.200;2022-09-09T04:06:13;101022.97;;;15.03;89.12
49935;BME280;39898;41.762;26.200;2022-09-09T04:08:41;101016.50;;;15.13;89.03
49935;BME280;39898;41.762;26.200;2022-09-09T04:11:08;100975.19;;;14.78;89.51
49935;BME280;39898;41.762;26.200;2022-09-09T04:13:37;101018.00;;;14.91;90.37
49935;BME280;39898;41.762;26.200;2022-09-09T04:16:06;101018.88;;;14.91;90.33
49935;BME280;39898;41.762;26.200;2022-09-09T04:18:33;101011.75;;;14.95;90.62
49935;BME280;39898;41.762;26.200;2022-09-09T04:21:01;101020.47;;;14.97;90.19
49935;BME280;39898;41.762;26.200;2022-09-09T04:23:28;101028.84;;;15.12;90.04
49935;BME280;39898;41.762;26.200;2022-09-09T04:25:57;101019.97;;;15.15;88.80
49935;BME280;39898;41.762;26.200;2022-09-09T04:28:26;101006.81;;;15.12;89.25
49935;BME280;39898;41.762;26.200;2022-09-09T04:30:53;101024.22;;;15.20;90.15
49935;BME280;39898;41.762;26.200;2022-09-09T04:33:20;101025.31;;;15.13;89.89
49935;BME280;39898;41.762;26.200;2022-09-09T04:35:49;101036.25;;;15.30;90.20
49935;BME280;39898;41.762;26.200;2022-09-09T04:38:17;100963.25;;;14.94;90.00
49935;BME280;39898;41.762;26.200;2022-09-09T04:40:47;101004.66;;;15.24;89.52
49935;BME280;39898;41.762;26.200;2022-09-09T04:43:14;101052.13;;;15.61;89.00
49935;BME280;39898;41.762;26.200;2022-09-09T04:45:42;101050.13;;;15.67;88.75
49935;BME280;39898;41.762;26.200;2022-09-09T04:48:09;101042.78;;;15.75;88.66
49935;BME280;39898;41.762;26.200;2022-09-09T04:50:38;101052.00;;;15.91;87.91
49935;BME280;39898;41.762;26.200;2022-09-09T04:53:05;101049.66;;;16.08;87.58
49935;BME280;39898;41.762;26.200;2022-09-09T04:55:32;101061.19;;;16.33;87.11
49935;BME280;39898;41.762;26.200;2022-09-09T04:58:05;101046.06;;;16.37;86.90
49935;BME280;39898;41.762;26.200;2022-09-09T05:00:35;101026.22;;;16.48;86.56
49935;BME280;39898;41.762;26.200;2022-09-09T05:03:03;101059.00;;;16.72;86.51
49935;BME280;39898;41.762;26.200;2022-09-09T05:05:32;101067.97;;;16.68;86.56
49935;BME280;39898;41.762;26.200;2022-09-09T05:08:04;101064.44;;;16.92;86.21
49935;BME280;39898;41.762;26.200;2022-09-09T05:10:32;101056.94;;;17.03;85.50
49935;BME280;39898;41.762;26.200;2022-09-09T05:12:59;101069.41;;;17.26;84.71
49935;BME280;39898;41.762;26.200;2022-09-09T05:15:26;101070.56;;;17.42;84.34
49935;BME280;39898;41.762;26.200;2022-09-09T05:18:00;101069.94;;;17.58;84.88
49935;BME280;39898;41.762;26.200;2022-09-09T05:20:27;101069.28;;;17.75;82.69
49935;BME280;39898;41.762;26.200;2022-09-09T05:22:55;101077.41;;;17.93;81.30
49935;BME280;39898;41.762;26.200;2022-09-09T05:25:23;101044.44;;;17.97;80.64
49935;BME280;39898;41.762;26.200;2022-09-09T05:27:52;101066.56;;;18.19;80.22
49935;BME280;39898;41.762;26.200;2022-09-09T05:30:20;101064.94;;;18.37;79.19
49935;BME280;39898;41.762;26.200;2022-09-09T05:32:49;101061.91;;;18.46;78.93
49935;BME280;39898;41.762;26.200;2022-09-09T05:35:15;101049.69;;;18.62;78.05
49935;BME280;39898;41.762;26.200;2022-09-09T05:37:44;101024.22;;;18.56;76.68
49935;BME280;39898;41.762;26.200;2022-09-09T05:40:12;101061.28;;;18.81;76.66
49935;BME280;39898;41.762;26.200;2022-09-09T05:42:39;101062.66;;;18.89;76.44
49935;BME280;39898;41.762;26.200;2022-09-09T05:45:07;101058.25;;;19.09;75.09
49935;BME280;39898;41.762;26.200;2022-09-09T05:47:34;101066.19;;;19.30;75.53
49935;BME280;39898;41.762;26.200;2022-09-09T05:50:01;101076.97;;;19.46;74.71
49935;BME280;39898;41.762;26.200;2022-09-09T05:52:28;101037.44;;;19.37;74.69
49935;BME280;39898;41.762;26.200;2022-09-09T05:54:55;101045.44;;;19.55;73.86
49935;BME280;39898;41.762;26.200;2022-09-09T05:57:23;100990.63;;;19.31;73.47
49935;BME280;39898;41.762;26.200;2022-09-09T05:59:49;101058.47;;;19.80;72.93
49935;BME280;39898;41.762;26.200;2022-09-09T06:02:16;101057.66;;;20.15;72.88
49935;BME280;39898;41.762;26.200;2022-09-09T06:04:43;101070.88;;;20.35;71.74
49935;BME280;39898;41.762;26.200;2022-09-09T06:07:10;101065.50;;;20.18;71.50
49935;BME280;39898;41.762;26.200;2022-09-09T06:09:36;101029.94;;;20.17;71.06
49935;BME280;39898;41.762;26.200;2022-09-09T06:12:03;101063.31;;;20.60;71.08
49935;BME280;39898;41.762;26.200;2022-09-09T06:14:30;101068.09;;;20.87;70.10
49935;BME280;39898;41.762;26.200;2022-09-09T06:16:57;101068.44;;;20.98;69.65
49935;BME280;39898;41.762;26.200;2022-09-09T06:19:23;101067.06;;;21.07;69.00
49935;BME280;39898;41.762;26.200;2022-09-09T06:21:52;101075.72;;;21.12;69.07
49935;BME280;39898;41.762;26.200;2022-09-09T06:24:19;101069.50;;;21.29;68.70
49935;BME280;39898;41.762;26.200;2022-09-09T06:26:46;101065.56;;;21.51;67.09
49935;BME280;39898;41.762;26.200;2022-09-09T06:29:13;101069.31;;;21.32;67.98
49935;BME280;39898;41.762;26.200;2022-09-09T06:31:39;101055.19;;;21.45;67.40
49935;BME280;39898;41.762;26.200;2022-09-09T06:34:08;101064.78;;;21.65;66.58
49935;BME280;39898;41.762;26.200;2022-09-09T06:36:37;101066.22;;;21.87;66.54
49935;BME280;39898;41.762;26.200;2022-09-09T06:39:05;101064.75;;;21.97;66.23
49935;BME280;39898;41.762;26.200;2022-09-09T06:41:39;101072.59;;;22.00;66.26
49935;BME280;39898;41.762;26.200;2022-09-09T06:44:06;101064.91;;;22.10;65.50
49935;BME280;39898;41.762;26.200;2022-09-09T06:46:33;101041.09;;;21.90;66.33
49935;BME280;39898;41.762;26.200;2022-09-09T06:49:02;101063.75;;;22.14;65.55
49935;BME280;39898;41.762;26.200;2022-09-09T06:51:34;101067.41;;;22.42;66.10
49935;BME280;39898;41.762;26.200;2022-09-09T06:54:03;101059.53;;;22.84;65.11
49935;BME280;39898;41.762;26.200;2022-09-09T06:56:36;101061.44;;;23.26;63.79
49935;BME280;39898;41.762;26.200;2022-09-09T06:59:05;101071.59;;;23.49;62.93
49935;BME280;39898;41.762;26.200;2022-09-09T07:01:34;101071.66;;;23.76;62.08
49935;BME280;39898;41.762;26.200;2022-09-09T07:04:02;101063.38;;;23.93;60.91
49935;BME280;39898;41.762;26.200;2022-09-09T07:06:35;101061.06;;;24.01;61.61
49935;BME280;39898;41.762;26.200;2022-09-09T07:09:05;101038.84;;;23.85;61.35
49935;BME280;39898;41.762;26.200;2022-09-09T07:11:36;101062.09;;;24.39;60.72
49935;BME280;39898;41.762;26.200;2022-09-09T07:14:04;101069.09;;;24.54;60.20
49935;BME280;39898;41.762;26.200;2022-09-09T07:16:30;101066.72;;;24.49;60.50
49935;BME280;39898;41.762;26.200;2022-09-09T07:19:00;101047.28;;;24.46;60.15
49935;BME280;39898;41.762;26.200;2022-09-09T07:21:30;101064.69;;;24.92;59.13
49935;BME280;39898;41.762;26.200;2022-09-09T07:23:57;101065.56;;;25.05;59.36
49935;BME280;39898;41.762;26.200;2022-09-09T07:26:27;101063.50;;;25.08;58.73
49935;BME280;39898;41.762;26.200;2022-09-09T07:28:54;101067.19;;;25.07;59.52
49935;BME280;39898;41.762;26.200;2022-09-09T07:31:25;101021.22;;;24.85;59.12
49935;BME280;39898;41.762;26.200;2022-09-09T07:33:53;101065.38;;;25.33;58.26
49935;BME280;39898;41.762;26.200;2022-09-09T07:36:25;101056.44;;;25.45;58.13
49935;BME280;39898;41.762;26.200;2022-09-09T07:39:01;101048.69;;;25.03;59.32
49935;BME280;39898;41.762;26.200;2022-09-09T07:41:34;101062.22;;;25.01;59.44
49935;BME280;39898;41.762;26.200;2022-09-09T07:44:14;101057.59;;;24.91;60.00
49935;BME280;39898;41.762;26.200;2022-09-09T07:46:41;101056.31;;;25.21;58.83
49935;BME280;39898;41.762;26.200;2022-09-09T07:49:09;101054.41;;;25.11;58.78
49935;BME280;39898;41.762;26.200;2022-09-09T07:51:38;101053.41;;;24.99;59.64
49935;BME280;39898;41.762;26.200;2022-09-09T07:54:07;101025.22;;;24.92;59.21
49935;BME280;39898;41.762;26.200;2022-09-09T07:56:36;101049.44;;;25.05;59.39
49935;BME280;39898;41.762;26.200;2022-09-09T07:59:06;101046.63;;;25.56;57.96
49935;BME280;39898;41.762;26.200;2022-09-09T08:01:38;101040.25;;;25.57;57.82
49935;BME280;39898;41.762;26.200;2022-09-09T08:04:14;101042.47;;;25.76;56.46
49935;BME280;39898;41.762;26.200;2022-09-09T08:07:00;101023.63;;;25.76;55.79
49935;BME280;39898;41.762;26.200;2022-09-09T08:09:28;101030.75;;;25.64;56.17
49935;BME280;39898;41.762;26.200;2022-09-09T08:11:55;101025.81;;;25.95;54.86
49935;BME280;39898;41.762;26.200;2022-09-09T08:14:23;101011.50;;;25.94;55.59
49935;BME280;39898;41.762;26.200;2022-09-09T08:16:50;101014.44;;;26.15;55.34
49935;BME280;39898;41.762;26.200;2022-09-09T08:19:20;101008.06;;;26.39;52.93
49935;BME280;39898;41.762;26.200;2022-09-09T08:21:47;100987.94;;;26.32;52.91
49935;BME280;39898;41.762;26.200;2022-09-09T08:24:15;101006.31;;;26.27;53.02
49935;BME280;39898;41.762;26.200;2022-09-09T08:26:44;101014.13;;;25.83;53.67
49935;BME280;39898;41.762;26.200;2022-09-09T08:29:12;100999.75;;;25.95;53.46
49935;BME280;39898;41.762;26.200;2022-09-09T08:31:51;100983.06;;;25.90;54.10
49935;BME280;39898;41.762;26.200;2022-09-09T08:34:21;101007.91;;;26.06;52.57
49935;BME280;39898;41.762;26.200;2022-09-09T08:36:49;101000.50;;;26.79;49.41
49935;BME280;39898;41.762;26.200;2022-09-09T08:39:18;100956.38;;;26.45;49.82
49935;BME280;39898;41.762;26.200;2022-09-09T08:50:35;100992.53;;;26.88;48.24
49935;BME280;39898;41.762;26.200;2022-09-09T08:55:42;100980.38;;;26.83;48.84
49935;BME280;39898;41.762;26.200;2022-09-09T08:58:19;100982.50;;;27.34;49.77
49935;BME280;39898;41.762;26.200;2022-09-09T09:03:38;100955.06;;;27.72;47.71
49935;BME280;39898;41.762;26.200;2022-09-09T09:06:35;100965.00;;;28.66;46.26
49935;BME280;39898;41.762;26.200;2022-09-09T09:11:40;100963.03;;;27.85;nan
49935;BME280;39898;41.762;26.200;2022-09-09T09:14:33;100967.53;;;27.84;nan
49935;BME280;39898;41.762;26.200;2022-09-09T09:17:02;100964.31;;;27.69;nan
49935;BME280;39898;41.762;26.200;2022-09-09T09:19:33;100947.31;;;28.21;nan
49935;BME280;39898;41.762;26.200;2022-09-09T09:22:21;100947.88;;;28.86;nan
49935;BME280;39898;41.762;26.200;2022-09-09T09:27:52;100952.09;;;28.49;nan
49935;BME280;39898;41.762;26.200;2022-09-09T09:30:28;100894.22;;;28.00;nan
49935;BME280;39898;41.762;26.200;2022-09-09T09:33:02;100941.47;;;28.57;nan
49935;BME280;39898;41.762;26.200;2022-09-09T09:35:31;100940.47;;;28.58;nan
49935;BME280;39898;41.762;26.200;2022-09-09T09:38:05;100940.94;;;28.93;nan
49935;BME280;39898;41.762;26.200;2022-09-09T09:40:59;100943.38;;;28.66;nan
49935;BME280;39898;41.762;26.200;2022-09-09T09:43:29;100940.81;;;28.95;nan
49935;BME280;39898;41.762;26.200;2022-09-09T09:45:57;100880.81;;;28.80;nan
49935;BME280;39898;41.762;26.200;2022-09-09T09:48:42;100919.47;;;29.22;nan
49935;BME280;39898;41.762;26.200;2022-09-09T09:51:11;100910.94;;;29.36;nan
49935;BME280;39898;41.762;26.200;2022-09-09T09:53:40;100925.56;;;29.14;nan
49935;BME280;39898;41.762;26.200;2022-09-09T09:56:09;100920.81;;;29.07;nan
49935;BME280;39898;41.762;26.200;2022-09-09T10:01:22;100908.91;;;29.68;nan
49935;BME280;39898;41.762;26.200;2022-09-09T10:04:00;100883.63;;;29.58;nan
49935;BME280;39898;41.762;26.200;2022-09-09T10:06:35;100924.22;;;29.48;nan
49935;BME280;39898;41.762;26.200;2022-09-09T10:18:05;100897.69;;;30.76;nan
49935;BME280;39898;41.762;26.200;2022-09-09T10:20:49;100854.84;;;30.24;nan
49935;BME280;39898;41.762;26.200;2022-09-09T10:23:25;100883.94;;;30.12;nan
49935;BME280;39898;41.762;26.200;2022-09-09T10:28:37;100881.59;;;30.55;nan
49935;BME280;39898;41.762;26.200;2022-09-09T10:43:49;100859.94;;;30.82;nan
49935;BME280;39898;41.762;26.200;2022-09-09T10:52:16;100829.38;;;31.07;nan
49935;BME280;39898;41.762;26.200;2022-09-09T10:57:27;100847.09;;;31.91;nan
49935;BME280;39898;41.762;26.200;2022-09-09T10:59:59;100852.59;;;31.64;nan
49935;BME280;39898;41.762;26.200;2022-09-09T11:02:30;100831.00;;;31.62;nan
49935;BME280;39898;41.762;26.200;2022-09-09T11:05:05;100848.25;;;31.36;nan
49935;BME280;39898;41.762;26.200;2022-09-09T11:07:50;100836.72;;;31.24;nan
49935;BME280;39898;41.762;26.200;2022-09-09T11:10:46;100842.78;;;30.82;nan
49935;BME280;39898;41.762;26.200;2022-09-09T11:13:24;100818.59;;;31.15;nan
49935;BME280;39898;41.762;26.200;2022-09-09T11:15:57;100823.19;;;31.42;nan
49935;BME280;39898;41.762;26.200;2022-09-09T11:18:29;100810.78;;;30.85;nan
49935;BME280;39898;41.762;26.200;2022-09-09T11:21:01;100829.44;;;30.61;nan
49935;BME280;39898;41.762;26.200;2022-09-09T11:23:45;100820.19;;;30.91;nan
49935;BME280;39898;41.762;26.200;2022-09-09T11:26:23;100816.25;;;31.82;nan
49935;BME280;39898;41.762;26.200;2022-09-09T11:34:55;100794.06;;;31.52;nan
49935;BME280;39898;41.762;26.200;2022-09-09T11:40:08;100783.31;;;31.85;nan
49935;BME280;39898;41.762;26.200;2022-09-09T11:42:40;100811.56;;;32.10;nan
49935;BME280;39898;41.762;26.200;2022-09-09T11:47:53;100797.56;;;31.62;nan
49935;BME280;39898;41.762;26.200;2022-09-09T11:52:48;100791.81;;;31.65;nan
49935;BME280;39898;41.762;26.200;2022-09-09T11:57:59;100784.19;;;31.68;nan
49935;BME280;39898;41.762;26.200;2022-09-09T12:00:39;100799.56;;;31.95;nan
49935;BME280;39898;41.762;26.200;2022-09-09T12:06:25;100769.56;;;31.87;nan
49935;BME280;39898;41.762;26.200;2022-09-09T12:09:19;100741.16;;;31.81;nan
49935;BME280;39898;41.762;26.200;2022-09-09T12:11:43;100767.97;;;31.76;nan
49935;BME280;39898;41.762;26.200;2022-09-09T12:17:21;100757.69;;;32.14;nan
49935;BME280;39898;41.762;26.200;2022-09-09T12:20:00;100759.56;;;31.87;nan
49935;BME280;39898;41.762;26.200;2022-09-09T12:25:28;100744.75;;;32.08;nan
49935;BME280;39898;41.762;26.200;2022-09-09T12:31:14;100747.72;;;31.53;nan
49935;BME280;39898;41.762;26.200;2022-09-09T12:33:45;100734.47;;;32.27;nan
49935;BME280;39898;41.762;26.200;2022-09-09T12:36:16;100713.25;;;32.64;nan
49935;BME280;39898;41.762;26.200;2022-09-09T12:38:45;100719.34;;;32.25;nan
49935;BME280;39898;41.762;26.200;2022-09-09T12:41:31;100727.28;;;32.44;nan
49935;BME280;39898;41.762;26.200;2022-09-09T12:44:09;100696.47;;;32.85;nan
49935;BME280;39898;41.762;26.200;2022-09-09T12:46:40;100659.59;;;32.49;nan
49935;BME280;39898;41.762;26.200;2022-09-09T12:51:54;100689.56;;;32.23;nan
49935;BME280;39898;41.762;26.200;2022-09-09T12:54:22;100707.28;;;32.69;nan
49935;BME280;39898;41.762;26.200;2022-09-09T12:56:50;100698.88;;;32.88;nan
49935;BME280;39898;41.762;26.200;2022-09-09T12:59:26;100683.09;;;33.07;nan
49935;BME280;39898;41.762;26.200;2022-09-09T13:01:57;100646.25;;;32.30;nan
49935;BME280;39898;41.762;26.200;2022-09-09T13:04:25;100685.63;;;32.10;nan
49935;BME280;39898;41.762;26.200;2022-09-09T13:06:52;100687.06;;;31.96;nan
49935;BME280;39898;41.762;26.200;2022-09-09T13:09:19;100681.44;;;31.72;nan
49935;BME280;39898;41.762;26.200;2022-09-09T13:11:52;100680.09;;;31.76;nan
49935;BME280;39898;41.762;26.200;2022-09-09T13:14:31;100668.78;;;31.80;nan
49935;BME280;39898;41.762;26.200;2022-09-09T13:17:03;100661.25;;;32.00;nan
49935;BME280;39898;41.762;26.200;2022-09-09T13:19:35;100657.81;;;31.72;nan
49935;BME280;39898;41.762;26.200;2022-09-09T13:22:14;100670.53;;;31.89;nan
49935;BME280;39898;41.762;26.200;2022-09-09T13:24:45;100663.03;;;31.83;nan
49935;BME280;39898;41.762;26.200;2022-09-09T13:27:30;100652.84;;;31.85;nan
49935;BME280;39898;41.762;26.200;2022-09-09T13:29:57;100641.03;;;32.02;nan
49935;BME280;39898;41.762;26.200;2022-09-09T13:32:25;100652.53;;;32.30;nan
49935;BME280;39898;41.762;26.200;2022-09-09T13:34:57;100645.31;;;32.13;nan
49935;BME280;39898;41.762;26.200;2022-09-09T13:37:36;100639.00;;;32.04;nan
49935;BME280;39898;41.762;26.200;2022-09-09T13:40:04;100655.41;;;31.87;nan
49935;BME280;39898;41.762;26.200;2022-09-09T13:42:37;100639.03;;;31.79;nan
49935;BME280;39898;41.762;26.200;2022-09-09T13:45:19;100651.88;;;31.69;nan
49935;BME280;39898;41.762;26.200;2022-09-09T13:47:47;100637.94;;;31.46;nan
49935;BME280;39898;41.762;26.200;2022-09-09T13:50:22;100651.63;;;31.80;nan
49935;BME280;39898;41.762;26.200;2022-09-09T13:52:52;100642.44;;;31.55;nan
49935;BME280;39898;41.762;26.200;2022-09-09T13:55:21;100641.47;;;31.64;nan
49935;BME280;39898;41.762;26.200;2022-09-09T13:57:54;100642.13;;;31.84;nan
49935;BME280;39898;41.762;26.200;2022-09-09T14:00:22;100649.59;;;31.82;nan
49935;BME280;39898;41.762;26.200;2022-09-09T14:02:50;100645.78;;;31.49;nan
49935;BME280;39898;41.762;26.200;2022-09-09T14:05:18;100634.16;;;31.39;nan
49935;BME280;39898;41.762;26.200;2022-09-09T14:07:45;100626.84;;;31.57;nan
49935;BME280;39898;41.762;26.200;2022-09-09T14:10:15;100638.81;;;31.47;nan
49935;BME280;39898;41.762;26.200;2022-09-09T14:12:43;100633.00;;;31.42;nan
49935;BME280;39898;41.762;26.200;2022-09-09T14:15:10;100631.25;;;31.33;nan
49935;BME280;39898;41.762;26.200;2022-09-09T14:17:38;100633.69;;;31.44;nan
49935;BME280;39898;41.762;26.200;2022-09-09T14:20:06;100634.25;;;31.47;nan
49935;BME280;39898;41.762;26.200;2022-09-09T14:22:36;100636.84;;;31.57;nan
49935;BME280;39898;41.762;26.200;2022-09-09T14:25:03;100637.31;;;31.52;nan
49935;BME280;39898;41.762;26.200;2022-09-09T14:27:31;100632.53;;;31.72;nan
49935;BME280;39898;41.762;26.200;2022-09-09T14:29:59;100637.47;;;31.51;nan
49935;BME280;39898;41.762;26.200;2022-09-09T14:32:27;100626.53;;;31.68;nan
49935;BME280;39898;41.762;26.200;2022-09-09T14:34:54;100628.66;;;31.49;nan
49935;BME280;39898;41.762;26.200;2022-09-09T14:37:20;100617.72;;;31.23;nan
49935;BME280;39898;41.762;26.200;2022-09-09T14:39:47;100626.19;;;31.20;nan
49935;BME280;39898;41.762;26.200;2022-09-09T14:42:17;100622.78;;;31.18;nan
49935;BME280;39898;41.762;26.200;2022-09-09T14:44:47;100596.56;;;30.92;nan
49935;BME280;39898;41.762;26.200;2022-09-09T14:47:14;100608.03;;;31.03;nan
49935;BME280;39898;41.762;26.200;2022-09-09T14:49:41;100596.31;;;30.77;nan
49935;BME280;39898;41.762;26.200;2022-09-09T14:52:10;100592.78;;;30.85;nan
49935;BME280;39898;41.762;26.200;2022-09-09T14:54:37;100594.66;;;30.84;nan
49935;BME280;39898;41.762;26.200;2022-09-09T14:57:04;100599.19;;;30.76;nan
49935;BME280;39898;41.762;26.200;2022-09-09T14:59:31;100600.00;;;30.76;nan
49935;BME280;39898;41.762;26.200;2022-09-09T15:01:57;100594.94;;;30.64;nan
49935;BME280;39898;41.762;26.200;2022-09-09T15:04:27;100593.88;;;30.57;nan
49935;BME280;39898;41.762;26.200;2022-09-09T15:06:54;100598.56;;;30.55;nan
49935;BME280;39898;41.762;26.200;2022-09-09T15:09:21;100597.03;;;30.52;nan
49935;BME280;39898;41.762;26.200;2022-09-09T15:11:48;100590.69;;;30.44;nan
49935;BME280;39898;41.762;26.200;2022-09-09T15:14:15;100596.97;;;30.44;nan
49935;BME280;39898;41.762;26.200;2022-09-09T15:16:43;100596.81;;;30.46;nan
49935;BME280;39898;41.762;26.200;2022-09-09T15:19:10;100603.38;;;30.43;nan